createdAt,value
2023-04-27T00:01:50.698Z,13.90
2023-04-27T00:04:17.253Z,13.76
2023-04-27T00:06:43.768Z,13.78
2023-04-27T00:09:10.162Z,13.77
2023-04-27T00:11:36.514Z,13.82
2023-04-27T00:14:03.051Z,13.88
2023-04-27T00:16:29.470Z,13.90
2023-04-27T00:18:56.804Z,13.72
2023-04-27T00:21:23.177Z,13.56
2023-04-27T00:23:49.564Z,13.64
2023-04-27T00:26:16.113Z,13.80
2023-04-27T00:28:42.404Z,13.84
2023-04-27T00:31:08.794Z,13.90
2023-04-27T00:33:35.121Z,13.90
2023-04-27T00:36:02.020Z,13.82
2023-04-27T00:38:28.929Z,13.86
2023-04-27T00:41:05.539Z,13.90
2023-04-27T00:43:32.512Z,13.97
2023-04-27T00:45:59.976Z,13.90
2023-04-27T00:48:26.857Z,13.93
2023-04-27T00:50:53.223Z,13.98
2023-04-27T00:53:19.757Z,14.03
2023-04-27T00:55:46.967Z,13.95
2023-04-27T00:58:13.299Z,13.89
2023-04-27T01:00:40.233Z,13.87
2023-04-27T01:03:07.502Z,13.77
2023-04-27T01:05:34.660Z,13.61
2023-04-27T01:08:00.958Z,13.55
2023-04-27T01:10:27.450Z,13.58
2023-04-27T01:12:53.945Z,13.58
2023-04-27T01:15:20.350Z,13.58
2023-04-27T01:17:47.383Z,13.66
2023-04-27T01:20:14.692Z,13.64
2023-04-27T01:22:41.800Z,13.65
2023-04-27T01:25:08.374Z,13.72
2023-04-27T01:27:34.658Z,13.64
2023-04-27T01:30:00.994Z,13.66
2023-04-27T01:32:27.374Z,13.65
2023-04-27T01:34:53.812Z,13.53
2023-04-27T01:37:20.211Z,13.52
2023-04-27T01:39:47.287Z,13.46
2023-04-27T01:42:13.643Z,13.47
2023-04-27T01:44:39.940Z,13.52
2023-04-27T01:47:06.272Z,13.59
2023-04-27T01:49:32.675Z,13.56
2023-04-27T01:51:59.201Z,13.52
2023-04-27T01:54:28.717Z,13.53
2023-04-27T01:56:55.592Z,13.59
2023-04-27T01:59:21.889Z,13.63
2023-04-27T02:01:48.285Z,13.62
2023-04-27T02:04:15.075Z,13.64
2023-04-27T02:06:41.757Z,13.62
2023-04-27T02:09:08.221Z,13.63
2023-04-27T02:11:34.566Z,13.63
2023-04-27T02:14:01.078Z,13.63
2023-04-27T02:16:27.835Z,13.51
2023-04-27T02:18:54.494Z,13.39
2023-04-27T02:21:21.102Z,13.41
2023-04-27T02:23:47.661Z,13.25
2023-04-27T02:26:18.809Z,13.24
2023-04-27T02:28:46.412Z,13.16
2023-04-27T02:31:14.154Z,13.11
2023-04-27T02:33:41.264Z,13.11
2023-04-27T02:36:08.395Z,13.20
2023-04-27T02:38:34.843Z,13.23
2023-04-27T02:41:01.170Z,13.23
2023-04-27T02:43:27.482Z,13.18
2023-04-27T02:45:53.833Z,13.26
2023-04-27T02:48:20.265Z,13.35
2023-04-27T02:50:46.601Z,13.40
2023-04-27T02:53:13.001Z,13.33
2023-04-27T02:55:39.318Z,13.29
2023-04-27T02:58:05.658Z,13.34
2023-04-27T03:00:32.981Z,13.28
2023-04-27T03:02:59.386Z,13.22
2023-04-27T03:05:26.599Z,13.30
2023-04-27T03:07:52.933Z,13.37
2023-04-27T03:10:19.286Z,13.42
2023-04-27T03:12:45.655Z,13.10
2023-04-27T03:15:12.075Z,12.98
2023-04-27T03:17:38.463Z,13.02
2023-04-27T03:20:09.300Z,13.13
2023-04-27T03:22:36.468Z,13.17
2023-04-27T03:25:03.481Z,13.12
2023-04-27T03:27:29.873Z,12.97
2023-04-27T03:29:56.678Z,12.92
2023-04-27T03:32:23.029Z,12.88
2023-04-27T03:34:49.367Z,12.90
2023-04-27T03:37:15.732Z,12.87
2023-04-27T03:39:42.051Z,12.86
2023-04-27T03:42:08.398Z,12.80
2023-04-27T03:44:36.373Z,12.85
2023-04-27T03:47:02.754Z,12.92
2023-04-27T03:49:29.116Z,12.78
2023-04-27T03:51:56.358Z,12.81
2023-04-27T03:54:22.675Z,12.86
2023-04-27T03:56:49.001Z,12.89
2023-04-27T03:59:15.766Z,12.94
2023-04-27T04:01:42.342Z,12.98
2023-04-27T04:04:08.772Z,12.91
2023-04-27T04:06:36.343Z,12.88
2023-04-27T04:09:03.606Z,12.85
2023-04-27T04:11:29.986Z,12.87
2023-04-27T04:13:56.667Z,12.90
2023-04-27T04:16:23.142Z,12.79
2023-04-27T04:18:49.586Z,12.50
2023-04-27T04:21:16.393Z,12.40
2023-04-27T04:23:42.730Z,12.46
2023-04-27T04:26:09.960Z,12.46
2023-04-27T04:28:37.128Z,12.57
2023-04-27T04:31:05.597Z,12.64
2023-04-27T04:33:32.218Z,12.57
2023-04-27T04:35:58.783Z,12.42
2023-04-27T04:38:25.107Z,12.40
2023-04-27T04:40:52.853Z,12.53
2023-04-27T04:43:19.235Z,12.56
2023-04-27T04:45:46.759Z,12.60
2023-04-27T04:48:14.472Z,12.52
2023-04-27T04:50:42.136Z,12.50
2023-04-27T04:53:08.450Z,12.57
2023-04-27T04:55:34.763Z,12.73
2023-04-27T04:58:01.650Z,12.87
2023-04-27T05:00:28.101Z,12.97
2023-04-27T05:02:54.638Z,13.07
2023-04-27T05:05:21.802Z,13.04
2023-04-27T05:07:48.289Z,12.87
2023-04-27T05:10:14.650Z,12.90
2023-04-27T05:12:41.035Z,12.91
2023-04-27T05:15:07.911Z,13.07
2023-04-27T05:17:34.493Z,13.10
2023-04-27T05:20:01.294Z,12.93
2023-04-27T05:22:27.695Z,12.90
2023-04-27T05:24:54.062Z,12.98
2023-04-27T05:27:20.703Z,13.12
2023-04-27T05:29:47.156Z,13.21
2023-04-27T05:32:13.453Z,13.30
2023-04-27T05:34:41.088Z,13.27
2023-04-27T05:37:07.539Z,13.19
2023-04-27T05:39:33.957Z,13.35
2023-04-27T05:42:00.360Z,13.45
2023-04-27T05:44:29.298Z,13.54
2023-04-27T05:46:58.739Z,13.63
2023-04-27T05:49:25.058Z,13.67
2023-04-27T05:51:51.868Z,13.69
2023-04-27T05:54:18.214Z,13.68
2023-04-27T05:56:44.522Z,13.76
2023-04-27T05:59:10.966Z,13.77
2023-04-27T06:01:37.340Z,13.86
2023-04-27T06:04:04.211Z,13.93
2023-04-27T06:06:31.800Z,13.93
2023-04-27T06:08:58.261Z,13.78
2023-04-27T06:11:24.643Z,13.87
2023-04-27T06:13:50.940Z,13.94
2023-04-27T06:16:17.448Z,14.08
2023-04-27T06:18:43.806Z,14.24
2023-04-27T06:21:10.185Z,14.29
2023-04-27T06:23:36.553Z,14.44
2023-04-27T06:26:03.460Z,14.54
2023-04-27T06:28:29.846Z,14.66
2023-04-27T06:30:56.535Z,14.85
2023-04-27T06:33:23.226Z,14.81
2023-04-27T06:35:49.932Z,15.19
2023-04-27T06:38:16.611Z,15.58
2023-04-27T06:40:43.020Z,15.56
2023-04-27T06:43:09.330Z,15.54
2023-04-27T06:45:36.053Z,15.57
2023-04-27T06:48:02.524Z,15.51
2023-04-27T06:50:29.430Z,15.74
2023-04-27T06:52:56.530Z,16.11
2023-04-27T06:55:22.913Z,16.33
2023-04-27T06:57:49.249Z,16.48
2023-04-27T07:00:15.724Z,16.61
2023-04-27T07:02:42.201Z,16.53
2023-04-27T07:05:08.763Z,16.65
2023-04-27T07:07:35.112Z,16.69
2023-04-27T07:10:01.643Z,16.86
2023-04-27T07:12:27.983Z,17.01
2023-04-27T07:14:54.487Z,17.13
2023-04-27T07:17:21.442Z,17.28
2023-04-27T07:19:47.804Z,17.38
2023-04-27T07:22:15.987Z,16.89
2023-04-27T07:24:42.442Z,17.03
2023-04-27T07:27:09.047Z,17.16
2023-04-27T07:29:37.792Z,17.45
2023-04-27T07:32:07.579Z,17.75
2023-04-27T07:34:49.116Z,17.79
2023-04-27T07:37:20.014Z,17.98
2023-04-27T07:39:46.773Z,18.11
2023-04-27T07:42:13.313Z,18.03
2023-04-27T07:44:41.029Z,18.10
2023-04-27T07:47:07.595Z,17.73
2023-04-27T07:49:35.489Z,17.62
2023-04-27T07:52:01.904Z,17.62
2023-04-27T07:54:28.527Z,17.54
2023-04-27T07:56:54.920Z,17.46
2023-04-27T07:59:21.486Z,17.61
2023-04-27T08:01:47.964Z,17.38
2023-04-27T08:04:16.167Z,17.15
2023-04-27T08:06:43.206Z,16.79
2023-04-27T08:09:09.997Z,17.27
2023-04-27T08:11:36.362Z,17.68
2023-04-27T08:14:02.770Z,17.93
2023-04-27T08:16:29.189Z,17.79
2023-04-27T08:18:57.564Z,17.83
2023-04-27T08:21:24.978Z,17.79
2023-04-27T08:23:51.480Z,17.85
2023-04-27T08:26:17.882Z,17.81
2023-04-27T08:28:44.354Z,17.67
2023-04-27T08:31:10.841Z,17.66
2023-04-27T08:33:37.194Z,17.95
2023-04-27T08:36:03.642Z,18.06
2023-04-27T08:38:29.978Z,17.96
2023-04-27T08:41:00.816Z,17.96
2023-04-27T08:43:35.959Z,18.31
2023-04-27T08:46:02.595Z,18.23
2023-04-27T08:48:29.311Z,18.23
2023-04-27T08:50:57.461Z,18.40
2023-04-27T08:53:23.765Z,18.21
2023-04-27T08:55:50.676Z,17.98
2023-04-27T08:58:17.037Z,18.10
2023-04-27T09:00:44.053Z,18.41
2023-04-27T09:03:22.551Z,18.43
2023-04-27T09:06:03.063Z,18.41
2023-04-27T09:08:42.757Z,18.39
2023-04-27T09:11:09.286Z,18.65
2023-04-27T09:13:36.728Z,18.69
2023-04-27T09:16:03.559Z,18.68
2023-04-27T09:18:33.871Z,18.93
2023-04-27T09:21:00.950Z,19.21
2023-04-27T09:23:27.959Z,19.55
2023-04-27T09:25:56.776Z,19.87
2023-04-27T09:28:23.444Z,19.95
2023-04-27T09:30:54.728Z,20.27
2023-04-27T09:33:25.154Z,20.60
2023-04-27T09:35:51.724Z,20.58
2023-04-27T09:38:22.003Z,20.38
2023-04-27T09:40:48.855Z,20.48
2023-04-27T09:43:16.034Z,20.30
2023-04-27T09:45:42.888Z,20.52
2023-04-27T09:48:10.040Z,20.79
2023-04-27T09:50:38.244Z,20.75
2023-04-27T09:53:13.802Z,20.72
2023-04-27T09:55:42.241Z,20.89
2023-04-27T09:58:08.636Z,21.17
2023-04-27T10:00:44.089Z,20.94
2023-04-27T10:03:43.116Z,21.27
2023-04-27T10:06:21.554Z,21.04
2023-04-27T10:08:49.998Z,21.26
2023-04-27T10:11:17.513Z,21.18
2023-04-27T10:13:54.827Z,21.04
2023-04-27T10:16:21.741Z,21.26
2023-04-27T10:18:52.895Z,20.80
2023-04-27T10:21:19.602Z,20.82
2023-04-27T10:23:47.369Z,20.79
2023-04-27T10:26:14.388Z,21.02
2023-04-27T10:28:41.945Z,21.03
2023-04-27T10:31:12.134Z,20.44
2023-04-27T10:33:43.324Z,20.01
2023-04-27T10:36:14.613Z,20.22
2023-04-27T10:38:41.846Z,20.54
2023-04-27T10:41:13.571Z,20.99
2023-04-27T10:43:40.801Z,20.86
2023-04-27T10:46:11.788Z,20.82
2023-04-27T10:48:44.796Z,21.15
2023-04-27T10:51:15.623Z,21.30
2023-04-27T10:53:42.120Z,21.38
2023-04-27T10:56:08.588Z,21.27
2023-04-27T10:58:48.313Z,21.38
2023-04-27T11:01:25.319Z,21.41
2023-04-27T11:03:58.869Z,21.81
2023-04-27T11:06:25.473Z,21.68
2023-04-27T11:08:51.985Z,21.59
2023-04-27T11:11:18.343Z,21.81
2023-04-27T11:13:45.001Z,21.64
2023-04-27T11:16:11.568Z,21.85
2023-04-27T11:18:38.203Z,21.90
2023-04-27T11:21:15.939Z,22.08
2023-04-27T11:23:42.739Z,22.12
2023-04-27T11:26:27.584Z,22.32
2023-04-27T11:29:23.842Z,22.27
2023-04-27T11:31:51.738Z,22.43
2023-04-27T11:34:22.650Z,22.15
2023-04-27T11:37:10.813Z,22.16
2023-04-27T11:39:44.932Z,22.52
2023-04-27T11:42:14.904Z,22.77
2023-04-27T11:44:41.286Z,22.48
2023-04-27T11:47:08.943Z,22.77
2023-04-27T11:49:35.582Z,23.08
2023-04-27T11:52:02.598Z,23.10
2023-04-27T11:54:29.729Z,23.33
2023-04-27T11:57:04.756Z,23.54
2023-04-27T11:59:31.130Z,23.42
2023-04-27T12:01:57.641Z,22.94
2023-04-27T12:04:24.186Z,23.28
2023-04-27T12:06:50.745Z,23.47
2023-04-27T12:09:17.478Z,23.30
2023-04-27T12:11:43.834Z,23.18
2023-04-27T12:14:10.382Z,23.66
2023-04-27T12:16:37.525Z,23.44
2023-04-27T12:19:04.699Z,23.90
2023-04-27T12:21:32.230Z,23.87
2023-04-27T12:23:58.534Z,23.83
2023-04-27T12:26:26.311Z,23.91
2023-04-27T12:28:52.650Z,23.93
2023-04-27T12:31:24.735Z,23.88
2023-04-27T12:33:54.006Z,24.15
2023-04-27T12:36:20.370Z,24.52
2023-04-27T12:38:47.128Z,24.06
2023-04-27T12:41:13.643Z,23.76
2023-04-27T12:43:41.386Z,23.75
2023-04-27T12:46:07.845Z,24.13
2023-04-27T12:48:34.543Z,24.31
2023-04-27T12:51:01.090Z,24.62
2023-04-27T12:53:28.101Z,24.50
2023-04-27T12:55:54.901Z,24.95
2023-04-27T12:58:21.610Z,24.77
2023-04-27T13:00:47.959Z,25.27
2023-04-27T13:03:14.441Z,25.07
2023-04-27T13:05:40.876Z,24.97
2023-04-27T13:08:07.255Z,24.96
2023-04-27T13:10:33.745Z,25.03
2023-04-27T13:13:00.290Z,25.02
2023-04-27T13:15:27.780Z,24.69
2023-04-27T13:17:54.449Z,25.01
2023-04-27T13:20:21.083Z,25.28
2023-04-27T13:22:48.193Z,25.17
2023-04-27T13:25:16.927Z,24.53
2023-04-27T13:27:43.645Z,24.43
2023-04-27T13:30:10.293Z,24.47
2023-04-27T13:32:36.716Z,24.80
2023-04-27T13:35:03.919Z,25.01
2023-04-27T13:37:30.379Z,24.93
2023-04-27T13:39:57.776Z,24.77
2023-04-27T13:42:29.269Z,25.10
2023-04-27T13:44:57.669Z,24.69
2023-04-27T13:47:24.087Z,24.71
2023-04-27T13:49:50.498Z,25.05
2023-04-27T13:52:16.865Z,25.13
2023-04-27T13:54:43.303Z,24.96
2023-04-27T13:57:09.708Z,25.05
2023-04-27T13:59:36.030Z,25.16
2023-04-27T14:02:03.056Z,24.97
2023-04-27T14:04:29.546Z,24.81
2023-04-27T14:06:56.742Z,25.03
2023-04-27T14:09:24.269Z,25.40
2023-04-27T14:11:56.521Z,25.23
2023-04-27T14:14:23.616Z,25.34
2023-04-27T14:16:51.357Z,25.62
2023-04-27T14:19:18.668Z,25.86
2023-04-27T14:21:45.053Z,25.57
2023-04-27T14:24:11.431Z,25.36
2023-04-27T14:26:37.765Z,25.53
2023-04-27T14:29:04.112Z,25.42
2023-04-27T14:31:30.870Z,25.66
2023-04-27T14:33:58.144Z,25.71
2023-04-27T14:36:24.508Z,25.80
2023-04-27T14:38:51.040Z,25.80
2023-04-27T14:41:17.521Z,25.64
2023-04-27T14:43:44.865Z,25.35
2023-04-27T14:46:20.268Z,25.48
2023-04-27T14:48:47.479Z,25.58
2023-04-27T14:51:13.969Z,25.92
2023-04-27T14:53:40.506Z,25.72
2023-04-27T14:56:07.267Z,25.68
2023-04-27T14:58:33.836Z,26.03
2023-04-27T15:01:01.081Z,25.80
2023-04-27T15:03:28.358Z,25.69
2023-04-27T15:05:54.944Z,26.04
2023-04-27T15:08:21.679Z,25.93
2023-04-27T15:10:48.081Z,25.19
2023-04-27T15:13:14.495Z,25.40
2023-04-27T15:15:41.132Z,25.46
2023-04-27T15:18:07.500Z,25.68
2023-04-27T15:20:33.960Z,25.50
2023-04-27T15:23:00.468Z,25.02
2023-04-27T15:25:29.668Z,24.50
2023-04-27T15:27:58.302Z,24.33
2023-04-27T15:30:24.722Z,24.31
2023-04-27T15:32:51.146Z,24.22
2023-04-27T15:35:17.735Z,24.01
2023-04-27T15:37:45.872Z,24.03
2023-04-27T15:40:12.499Z,24.04
2023-04-27T15:42:38.791Z,24.49
2023-04-27T15:45:06.302Z,24.62
2023-04-27T15:47:33.800Z,24.62
2023-04-27T15:50:00.752Z,24.89
2023-04-27T15:52:30.200Z,24.79
2023-04-27T15:54:57.681Z,24.81
2023-04-27T15:57:24.055Z,24.64
2023-04-27T15:59:50.390Z,24.02
2023-04-27T16:02:16.963Z,23.30
2023-04-27T16:04:43.474Z,23.57
2023-04-27T16:07:09.822Z,23.51
2023-04-27T16:09:36.349Z,23.14
2023-04-27T16:12:04.314Z,23.29
2023-04-27T16:14:30.788Z,22.69
2023-04-27T16:17:00.795Z,22.19
2023-04-27T16:19:27.773Z,21.96
2023-04-27T16:21:54.156Z,21.43
2023-04-27T16:24:25.149Z,21.10
2023-04-27T16:26:53.666Z,20.88
2023-04-27T16:29:20.049Z,20.54
2023-04-27T16:31:49.250Z,20.52
2023-04-27T16:34:15.659Z,20.72
2023-04-27T16:36:42.247Z,20.76
2023-04-27T16:39:09.637Z,20.76
2023-04-27T16:41:36.138Z,20.87
2023-04-27T16:44:02.659Z,21.21
2023-04-27T16:46:29.111Z,21.31
2023-04-27T16:48:56.752Z,21.54
2023-04-27T16:51:23.049Z,21.48
2023-04-27T16:53:50.624Z,21.66
2023-04-27T16:56:24.928Z,21.57
2023-04-27T16:58:51.307Z,21.69
2023-04-27T17:01:17.805Z,21.77
2023-04-27T17:03:44.307Z,21.71
2023-04-27T17:06:11.559Z,21.78
2023-04-27T17:08:37.941Z,21.61
2023-04-27T17:11:10.728Z,21.54
2023-04-27T17:13:37.108Z,21.46
2023-04-27T17:16:04.664Z,21.28
2023-04-27T17:18:31.340Z,21.22
2023-04-27T17:20:57.692Z,21.27
2023-04-27T17:23:24.021Z,21.23
2023-04-27T17:25:50.429Z,21.14
2023-04-27T17:28:16.986Z,21.19
2023-04-27T17:30:43.310Z,21.18
2023-04-27T17:33:10.112Z,21.13
2023-04-27T17:35:36.500Z,21.10
2023-04-27T17:38:02.885Z,21.13
2023-04-27T17:40:30.961Z,21.13
2023-04-27T17:42:58.143Z,21.04
2023-04-27T17:45:27.254Z,20.88
2023-04-27T17:47:53.743Z,20.64
2023-04-27T17:50:20.318Z,20.58
2023-04-27T17:52:49.408Z,20.50
2023-04-27T17:55:15.860Z,20.52
2023-04-27T17:57:42.150Z,20.56
2023-04-27T18:00:10.317Z,20.47
2023-04-27T18:02:36.995Z,20.55
2023-04-27T18:05:03.652Z,20.61
2023-04-27T18:07:30.048Z,20.54
2023-04-27T18:09:57.580Z,20.39
2023-04-27T18:12:23.983Z,20.32
2023-04-27T18:14:50.848Z,20.14
2023-04-27T18:17:17.250Z,19.96
2023-04-27T18:19:43.650Z,19.76
2023-04-27T18:22:10.390Z,19.65
2023-04-27T18:24:36.847Z,19.69
2023-04-27T18:27:04.026Z,19.36
2023-04-27T18:29:30.711Z,18.97
2023-04-27T18:31:58.465Z,18.84
2023-04-27T18:34:25.174Z,18.76
2023-04-27T18:36:52.199Z,18.58
2023-04-27T18:39:18.659Z,18.51
2023-04-27T18:41:44.978Z,18.26
2023-04-27T18:44:11.442Z,17.79
2023-04-27T18:46:37.876Z,17.50
2023-04-27T18:49:04.204Z,17.46
2023-04-27T18:51:32.228Z,17.53
2023-04-27T18:53:58.663Z,17.59
2023-04-27T18:56:24.973Z,17.63
2023-04-27T18:58:51.369Z,17.57
2023-04-27T19:01:18.710Z,17.42
2023-04-27T19:03:45.283Z,17.34
2023-04-27T19:06:12.963Z,17.28
2023-04-27T19:08:39.323Z,17.20
2023-04-27T19:11:05.742Z,17.22
2023-04-27T19:13:32.068Z,17.34
2023-04-27T19:15:59.181Z,17.44
2023-04-27T19:18:28.612Z,17.55
2023-04-27T19:20:55.005Z,17.62
2023-04-27T19:23:21.397Z,17.59
2023-04-27T19:25:48.276Z,17.41
2023-04-27T19:28:15.878Z,17.36
2023-04-27T19:30:42.400Z,17.29
2023-04-27T19:33:08.769Z,16.98
2023-04-27T19:35:35.144Z,16.95
2023-04-27T19:38:01.454Z,16.91
2023-04-27T19:40:27.859Z,16.83
2023-04-27T19:42:54.287Z,16.73
2023-04-27T19:45:22.135Z,16.69
2023-04-27T19:47:51.483Z,16.65
2023-04-27T19:50:17.883Z,16.62
2023-04-27T19:52:44.252Z,16.57
2023-04-27T19:55:10.579Z,16.47
2023-04-27T19:57:37.029Z,16.46
2023-04-27T20:00:06.985Z,16.59
2023-04-27T20:02:33.410Z,16.74
2023-04-27T20:05:00.189Z,16.66
2023-04-27T20:07:27.472Z,16.63
2023-04-27T20:09:53.748Z,16.63
2023-04-27T20:12:40.726Z,16.56
2023-04-27T20:15:07.316Z,16.64
2023-04-27T20:17:33.939Z,16.59
2023-04-27T20:20:01.034Z,16.63
2023-04-27T20:22:27.820Z,16.54
2023-04-27T20:24:58.906Z,16.33
2023-04-27T20:27:25.325Z,16.32
2023-04-27T20:29:51.625Z,16.48
2023-04-27T20:32:18.045Z,16.55
2023-04-27T20:34:44.334Z,16.49
2023-04-27T20:37:10.792Z,16.55
2023-04-27T20:39:37.130Z,16.33
2023-04-27T20:42:04.054Z,16.36
2023-04-27T20:44:32.162Z,16.25
2023-04-27T20:46:58.434Z,16.29
2023-04-27T20:49:34.282Z,16.50
2023-04-27T20:52:02.149Z,16.74
2023-04-27T20:54:30.939Z,16.83
2023-04-27T20:56:57.750Z,17.06
2023-04-27T20:59:24.117Z,17.16
2023-04-27T21:01:50.687Z,16.88
2023-04-27T21:04:17.309Z,16.48
2023-04-27T21:06:43.849Z,16.44
2023-04-27T21:09:10.538Z,16.51
2023-04-27T21:11:36.883Z,16.52
2023-04-27T21:14:03.240Z,16.52
2023-04-27T21:16:29.620Z,16.69
2023-04-27T21:18:56.378Z,16.63
2023-04-27T21:21:23.765Z,16.62
2023-04-27T21:23:57.192Z,16.80
2023-04-27T21:26:31.006Z,16.98
2023-04-27T21:28:57.431Z,17.05
2023-04-27T21:31:23.793Z,16.91
2023-04-27T21:33:51.247Z,16.80
2023-04-27T21:36:17.554Z,16.76
2023-04-27T21:38:43.882Z,16.79
2023-04-27T21:41:11.700Z,16.75
2023-04-27T21:43:41.834Z,16.71
2023-04-27T21:46:08.988Z,16.75
2023-04-27T21:48:35.695Z,16.65
2023-04-27T21:51:02.337Z,16.52
2023-04-27T21:53:31.744Z,16.11
2023-04-27T21:55:58.089Z,16.18
2023-04-27T21:58:24.946Z,16.14
2023-04-27T22:00:51.605Z,16.38
2023-04-27T22:03:18.161Z,16.51
2023-04-27T22:05:45.323Z,16.46
2023-04-27T22:08:12.149Z,16.51
2023-04-27T22:10:38.567Z,16.52
2023-04-27T22:13:17.873Z,16.55
2023-04-27T22:15:45.902Z,16.67
2023-04-27T22:18:14.235Z,16.61
2023-04-27T22:20:40.684Z,16.52
2023-04-27T22:23:07.531Z,16.56
2023-04-27T22:25:33.849Z,16.45
2023-04-27T22:28:01.540Z,16.58
2023-04-27T22:30:28.555Z,16.64
2023-04-27T22:32:55.789Z,16.68
2023-04-27T22:35:26.989Z,16.73
2023-04-27T22:37:59.166Z,16.69
2023-04-27T22:40:26.429Z,16.65
2023-04-27T22:42:53.119Z,16.69
2023-04-27T22:45:19.659Z,16.81
2023-04-27T22:47:46.295Z,16.82
2023-04-27T22:50:13.214Z,16.90
2023-04-27T22:52:42.311Z,16.90
2023-04-27T22:55:09.393Z,16.83
2023-04-27T22:57:35.868Z,16.73
2023-04-27T23:00:05.093Z,16.55
2023-04-27T23:02:31.693Z,16.57
2023-04-27T23:04:58.762Z,16.65
2023-04-27T23:07:25.337Z,16.69
2023-04-27T23:09:52.763Z,16.63
2023-04-27T23:12:20.677Z,16.50
2023-04-27T23:14:47.167Z,16.43
2023-04-27T23:17:15.381Z,16.40
2023-04-27T23:19:41.884Z,16.41
2023-04-27T23:22:09.773Z,16.40
2023-04-27T23:24:36.054Z,16.43
2023-04-27T23:27:02.335Z,16.48
2023-04-27T23:29:30.150Z,16.44
2023-04-27T23:32:01.140Z,16.47
2023-04-27T23:34:27.869Z,16.47
2023-04-27T23:36:54.160Z,16.21
2023-04-27T23:39:20.552Z,16.17
2023-04-27T23:41:46.878Z,16.16
2023-04-27T23:44:13.418Z,16.26
2023-04-27T23:46:39.899Z,16.39
2023-04-27T23:49:06.221Z,16.43
2023-04-27T23:51:32.905Z,16.43
2023-04-27T23:53:59.263Z,16.41
2023-04-27T23:56:26.668Z,16.41
2023-04-27T23:58:52.970Z,16.26
